createdAt,value
2019-05-25T00:00:38.877Z,63.81
2019-05-25T00:10:33.166Z,63.40
2019-05-25T00:20:33.105Z,64.49
2019-05-25T00:30:39.904Z,65.61
2019-05-25T00:40:30.678Z,64.34
2019-05-25T00:50:32.632Z,64.15
2019-05-25T01:00:33.956Z,65.85
2019-05-25T01:10:33.243Z,66.37
2019-05-25T01:20:32.192Z,65.95
2019-05-25T01:30:32.732Z,65.36
2019-05-25T01:40:33.085Z,65.90
2019-05-25T01:50:30.610Z,65.92
2019-05-25T02:00:31.753Z,65.83
2019-05-25T02:15:33.754Z,67.11
2019-05-25T02:30:32.741Z,67.78
2019-05-25T02:40:33.204Z,68.20
2019-05-25T02:50:33.592Z,68.08
2019-05-25T03:00:34.921Z,69.00
2019-05-25T03:10:33.214Z,69.80
2019-05-25T03:20:32.819Z,70.11
2019-05-25T03:30:37.232Z,69.28
2019-05-25T03:35:33.599Z,69.14
2019-05-25T03:40:33.165Z,69.30
2019-05-25T03:45:34.051Z,68.55
2019-05-25T03:50:33.174Z,68.33
2019-05-25T03:55:32.574Z,68.65
2019-05-25T04:00:38.175Z,68.56
2019-05-25T04:05:32.645Z,68.71
2019-05-25T04:10:33.161Z,67.50
2019-05-25T04:15:34.863Z,67.45
2019-05-25T04:20:34.054Z,67.97
2019-05-25T04:25:33.064Z,69.05
2019-05-25T04:30:33.698Z,68.51
2019-05-25T04:40:33.094Z,67.93
2019-05-25T04:50:32.126Z,69.02
2019-05-25T04:55:30.626Z,69.23
2019-05-25T05:00:31.143Z,69.92
2019-05-25T05:05:33.093Z,69.51
2019-05-25T05:10:33.699Z,67.82
2019-05-25T05:15:32.691Z,66.69
2019-05-25T05:20:33.123Z,67.08
2019-05-25T05:25:32.614Z,67.85
2019-05-25T05:30:34.087Z,67.58
2019-05-25T05:35:33.710Z,66.63
2019-05-25T05:40:33.169Z,65.42
2019-05-25T05:45:34.643Z,66.14
2019-05-25T05:50:34.944Z,66.23
2019-05-25T05:55:33.712Z,67.41
2019-05-25T06:00:33.738Z,66.44
2019-05-25T06:05:33.096Z,64.75
2019-05-25T06:10:33.101Z,66.23
2019-05-25T06:15:32.621Z,64.71
2019-05-25T06:20:33.088Z,65.90
2019-05-25T06:25:33.113Z,65.69
2019-05-25T06:30:34.088Z,65.20
2019-05-25T06:35:32.691Z,65.12
2019-05-25T06:40:33.160Z,62.33
2019-05-25T06:50:34.425Z,62.19
2019-05-25T07:00:33.743Z,62.56
2019-05-25T07:05:32.627Z,61.88
2019-05-25T07:10:33.337Z,61.76
2019-05-25T07:15:32.703Z,62.25
2019-05-25T07:20:33.226Z,62.57
2019-05-25T07:25:33.223Z,61.27
2019-05-25T07:30:32.304Z,59.68
2019-05-25T07:35:33.674Z,60.25
2019-05-25T07:40:33.074Z,60.00
2019-05-25T07:45:33.113Z,60.36
2019-05-25T07:50:32.802Z,59.76
2019-05-25T07:55:34.894Z,61.87
2019-05-25T08:00:36.740Z,59.95
2019-05-25T08:05:32.639Z,59.44
2019-05-25T08:10:30.619Z,59.05
2019-05-25T08:15:33.279Z,57.86
2019-05-25T08:20:33.086Z,58.23
2019-05-25T08:25:35.580Z,57.45
2019-05-25T08:30:33.183Z,58.13
2019-05-25T08:35:32.087Z,57.19
2019-05-25T08:40:32.579Z,57.48
2019-05-25T08:45:33.221Z,57.64
2019-05-25T08:50:38.367Z,60.32
2019-05-25T08:55:32.414Z,56.28
2019-05-25T09:00:33.808Z,54.12
2019-05-25T09:05:33.074Z,52.47
2019-05-25T09:10:51.383Z,51.78
2019-05-25T09:15:32.641Z,51.76
2019-05-25T09:20:32.623Z,51.17
2019-05-25T09:25:33.107Z,50.15
2019-05-25T09:30:32.620Z,48.64
2019-05-25T09:35:32.659Z,46.86
2019-05-25T09:40:33.417Z,45.94
2019-05-25T09:45:33.143Z,45.82
2019-05-25T09:50:35.724Z,46.28
2019-05-25T09:55:33.309Z,48.12
2019-05-25T10:00:34.098Z,48.03
2019-05-25T10:05:33.085Z,44.90
2019-05-25T10:10:38.776Z,46.34
2019-05-25T10:15:32.835Z,45.30
2019-05-25T10:20:32.612Z,45.46
2019-05-25T10:25:33.192Z,43.82
2019-05-25T10:30:32.581Z,43.25
2019-05-25T10:35:32.112Z,44.78
2019-05-25T10:40:32.922Z,47.15
2019-05-25T10:45:33.235Z,49.53
2019-05-25T10:50:33.228Z,49.82
2019-05-25T10:55:33.152Z,49.50
2019-05-25T11:00:34.119Z,48.70
2019-05-25T11:05:33.282Z,50.70
2019-05-25T11:10:33.217Z,51.53
2019-05-25T11:15:32.605Z,51.03
2019-05-25T11:20:33.099Z,49.79
2019-05-25T11:25:32.284Z,49.94
2019-05-25T11:30:32.173Z,47.71
2019-05-25T11:35:32.670Z,43.00
2019-05-25T11:40:33.188Z,46.94
2019-05-25T11:45:32.145Z,47.34
2019-05-25T11:50:33.290Z,44.76
2019-05-25T11:55:32.585Z,42.87
2019-05-25T12:00:34.041Z,45.86
2019-05-25T12:05:33.150Z,43.50
2019-05-25T12:10:33.658Z,43.93
2019-05-25T12:15:33.242Z,46.31
2019-05-25T12:20:33.108Z,44.60
2019-05-25T12:25:32.636Z,46.10
2019-05-25T12:30:41.060Z,44.67
2019-05-25T12:35:32.287Z,45.41
2019-05-25T12:40:33.148Z,44.31
2019-05-25T12:45:42.107Z,46.15
2019-05-25T12:50:33.239Z,45.57
2019-05-25T12:55:33.722Z,44.50
2019-05-25T13:00:55.639Z,45.66
2019-05-25T13:05:34.609Z,47.53
2019-05-25T13:10:32.254Z,46.12
2019-05-25T13:15:32.602Z,46.15
2019-05-25T13:20:36.147Z,47.30
2019-05-25T13:25:33.177Z,48.84
2019-05-25T13:30:33.106Z,46.75
2019-05-25T13:35:33.111Z,50.42
2019-05-25T13:40:33.200Z,46.91
2019-05-25T13:45:33.185Z,49.94
2019-05-25T13:50:33.138Z,51.29
2019-05-25T13:55:33.105Z,51.18
2019-05-25T14:00:34.091Z,51.58
2019-05-25T14:10:33.435Z,51.97
2019-05-25T14:15:32.637Z,54.15
2019-05-25T14:20:33.653Z,55.54
2019-05-25T14:25:32.588Z,55.33
2019-05-25T14:30:32.184Z,56.57
2019-05-25T14:35:30.586Z,54.66
2019-05-25T14:40:32.693Z,56.99
2019-05-25T14:50:33.841Z,61.78
2019-05-25T14:55:33.178Z,61.76
2019-05-25T15:00:36.264Z,61.04
2019-05-25T15:05:36.182Z,61.52
2019-05-25T15:10:33.135Z,61.85
2019-05-25T15:15:32.790Z,62.44
2019-05-25T15:20:33.634Z,63.79
2019-05-25T15:25:36.263Z,63.95
2019-05-25T15:30:35.673Z,63.30
2019-05-25T15:35:32.635Z,63.63
2019-05-25T15:40:32.597Z,64.21
2019-05-25T15:45:33.256Z,65.10
2019-05-25T15:55:33.316Z,65.34
2019-05-25T16:05:39.824Z,68.20
2019-05-25T16:10:36.860Z,68.42
2019-05-25T16:15:35.594Z,68.67
2019-05-25T16:20:42.821Z,68.71
2019-05-25T16:25:32.918Z,68.49
2019-05-25T16:30:33.330Z,68.09
2019-05-25T16:35:32.860Z,69.06
2019-05-25T16:40:33.577Z,68.07
2019-05-25T16:45:32.594Z,68.09
2019-05-25T16:50:32.632Z,68.00
2019-05-25T16:55:32.585Z,68.35
2019-05-25T17:00:33.721Z,69.09
2019-05-25T17:05:33.168Z,68.27
2019-05-25T17:10:33.923Z,68.49
2019-05-25T17:15:33.111Z,68.47
2019-05-25T17:20:33.097Z,70.29
2019-05-25T17:25:33.601Z,71.18
2019-05-25T17:30:41.604Z,71.19
2019-05-25T17:35:33.250Z,72.27
2019-05-25T17:40:33.139Z,72.26
2019-05-25T17:45:33.616Z,71.72
2019-05-25T17:50:33.219Z,71.20
2019-05-25T17:55:33.079Z,71.48
2019-05-25T18:00:43.381Z,72.04
2019-05-25T18:05:32.360Z,72.35
2019-05-25T18:10:49.023Z,73.15
2019-05-25T18:15:42.769Z,74.09
2019-05-25T18:20:33.243Z,73.95
2019-05-25T18:25:33.257Z,74.03
2019-05-25T18:30:39.223Z,74.46
2019-05-25T18:35:33.733Z,75.19
2019-05-25T18:40:33.627Z,75.78
2019-05-25T18:45:33.298Z,75.87
2019-05-25T18:50:33.609Z,76.57
2019-05-25T19:00:33.701Z,75.93
2019-05-25T19:10:33.323Z,77.18
2019-05-25T19:20:33.224Z,78.44
2019-05-25T19:30:32.161Z,80.47
2019-05-25T19:40:33.096Z,81.23
2019-05-25T19:50:35.570Z,82.32
2019-05-25T20:00:33.478Z,81.44
2019-05-25T20:10:32.686Z,81.91
2019-05-25T20:20:33.466Z,82.22
2019-05-25T20:30:33.429Z,82.21
2019-05-25T20:40:33.130Z,82.62
2019-05-25T20:50:32.645Z,83.10
2019-05-25T21:00:33.777Z,83.66
2019-05-25T21:10:33.672Z,82.38
2019-05-25T21:20:33.144Z,81.18
2019-05-25T21:30:34.081Z,80.78
2019-05-25T21:40:34.630Z,81.54
2019-05-25T21:50:32.745Z,81.50
2019-05-25T22:00:40.693Z,81.63
2019-05-25T22:10:33.184Z,82.21
2019-05-25T22:20:33.206Z,83.36
2019-05-25T22:30:30.648Z,83.01
2019-05-25T22:40:32.688Z,82.57
2019-05-25T22:50:33.172Z,81.29
2019-05-25T23:00:33.859Z,80.96
2019-05-25T23:15:33.130Z,80.35
2019-05-25T23:30:33.092Z,78.71
2019-05-25T23:40:33.180Z,77.68
2019-05-25T23:50:33.109Z,76.28
